createdAt,value
2023-01-13T00:01:30.606Z,76.80
2023-01-13T00:03:57.240Z,76.80
2023-01-13T00:06:23.879Z,76.80
2023-01-13T00:08:50.508Z,77.00
2023-01-13T00:11:17.196Z,77.00
2023-01-13T00:13:43.816Z,76.90
2023-01-13T00:16:10.495Z,76.80
2023-01-13T00:18:37.154Z,76.70
2023-01-13T00:21:03.792Z,76.50
2023-01-13T00:23:30.413Z,76.50
2023-01-13T00:25:57.043Z,76.50
2023-01-13T00:28:23.653Z,76.60
2023-01-13T00:30:50.269Z,76.70
2023-01-13T00:33:22.620Z,76.70
2023-01-13T00:35:49.241Z,76.50
2023-01-13T00:38:16.062Z,76.40
2023-01-13T00:40:42.669Z,76.40
2023-01-13T00:43:09.280Z,76.50
2023-01-13T00:45:35.880Z,76.30
2023-01-13T00:48:02.498Z,76.50
2023-01-13T00:50:29.125Z,76.60
2023-01-13T00:52:55.738Z,76.40
2023-01-13T00:55:22.347Z,76.40
2023-01-13T00:57:48.967Z,76.40
2023-01-13T01:00:15.574Z,76.40
2023-01-13T01:02:42.247Z,76.30
2023-01-13T01:05:08.910Z,76.20
2023-01-13T01:07:35.527Z,76.10
2023-01-13T01:10:02.189Z,76.20
2023-01-13T01:12:28.836Z,76.20
2023-01-13T01:14:55.445Z,76.10
2023-01-13T01:17:22.062Z,76.00
2023-01-13T01:19:48.676Z,75.90
2023-01-13T01:22:15.297Z,75.80
2023-01-13T01:24:41.912Z,75.60
2023-01-13T01:27:08.553Z,75.70
2023-01-13T01:29:35.171Z,75.50
2023-01-13T01:32:01.927Z,75.40
2023-01-13T01:34:28.544Z,75.50
2023-01-13T01:36:55.181Z,75.30
2023-01-13T01:39:21.801Z,75.40
2023-01-13T01:41:48.419Z,75.20
2023-01-13T01:44:15.032Z,75.30
2023-01-13T01:46:41.757Z,75.40
2023-01-13T01:49:08.422Z,75.20
2023-01-13T01:51:35.029Z,75.10
2023-01-13T01:54:01.644Z,75.30
2023-01-13T01:56:28.256Z,75.20
2023-01-13T01:58:54.860Z,75.00
2023-01-13T02:01:21.565Z,75.10
2023-01-13T02:03:48.281Z,75.10
2023-01-13T02:06:14.922Z,75.00
2023-01-13T02:08:41.554Z,74.60
2023-01-13T02:11:08.153Z,74.70
2023-01-13T02:13:34.767Z,74.20
2023-01-13T02:16:01.384Z,74.30
2023-01-13T02:18:28.063Z,74.50
2023-01-13T02:20:54.667Z,74.60
2023-01-13T02:23:21.298Z,74.50
2023-01-13T02:25:47.926Z,74.50
2023-01-13T02:28:14.669Z,74.10
2023-01-13T02:30:41.421Z,74.10
2023-01-13T02:33:08.070Z,74.00
2023-01-13T02:35:35.787Z,74.20
2023-01-13T02:38:02.405Z,74.10
2023-01-13T02:40:29.032Z,74.00
2023-01-13T02:42:55.633Z,74.00
2023-01-13T02:45:22.245Z,74.00
2023-01-13T02:47:48.859Z,73.60
2023-01-13T02:50:15.475Z,73.70
2023-01-13T02:52:42.089Z,73.90
2023-01-13T02:55:08.713Z,73.70
2023-01-13T02:57:35.324Z,73.80
2023-01-13T03:00:01.849Z,74.00
2023-01-13T03:02:28.373Z,73.60
2023-01-13T03:04:54.906Z,73.50
2023-01-13T03:07:21.380Z,73.70
2023-01-13T03:09:47.870Z,73.50
2023-01-13T03:12:14.344Z,73.40
2023-01-13T03:14:40.811Z,73.60
2023-01-13T03:17:07.293Z,73.00
2023-01-13T03:19:33.774Z,73.30
2023-01-13T03:22:00.254Z,73.00
2023-01-13T03:24:26.769Z,73.00
2023-01-13T03:26:53.271Z,73.00
2023-01-13T03:29:19.769Z,72.70
2023-01-13T03:31:46.248Z,73.00
2023-01-13T03:34:12.720Z,72.70
2023-01-13T03:36:39.176Z,72.50
2023-01-13T03:39:05.664Z,72.20
2023-01-13T03:41:32.132Z,72.20
2023-01-13T03:43:58.626Z,72.30
2023-01-13T03:46:25.095Z,72.20
2023-01-13T03:48:51.573Z,72.10
2023-01-13T03:51:18.056Z,72.00
2023-01-13T03:53:44.526Z,72.10
2023-01-13T03:56:11.005Z,71.60
2023-01-13T03:58:37.476Z,71.60
2023-01-13T04:01:04.054Z,71.80
2023-01-13T04:03:30.670Z,71.30
2023-01-13T04:05:57.183Z,71.10
2023-01-13T04:08:23.653Z,71.30
2023-01-13T04:10:50.119Z,71.40
2023-01-13T04:13:16.613Z,72.10
2023-01-13T04:15:43.146Z,71.70
2023-01-13T04:18:09.698Z,71.50
2023-01-13T04:20:36.199Z,71.20
2023-01-13T04:23:02.657Z,71.50
2023-01-13T04:25:29.143Z,71.20
2023-01-13T04:27:55.604Z,71.30
2023-01-13T04:30:22.104Z,71.10
2023-01-13T04:32:48.571Z,71.00
2023-01-13T04:35:15.046Z,70.90
2023-01-13T04:37:46.694Z,71.20
2023-01-13T04:40:16.701Z,71.00
2023-01-13T04:42:43.191Z,70.90
2023-01-13T04:45:09.654Z,71.10
2023-01-13T04:47:36.124Z,71.00
2023-01-13T04:50:02.596Z,70.50
2023-01-13T04:52:29.082Z,70.60
2023-01-13T04:54:55.568Z,70.90
2023-01-13T04:57:22.044Z,70.30
2023-01-13T04:59:48.538Z,69.90
2023-01-13T05:02:15.102Z,70.30
2023-01-13T05:04:41.700Z,70.40
2023-01-13T05:07:08.238Z,70.40
2023-01-13T05:09:34.706Z,70.30
2023-01-13T05:12:01.201Z,70.10
2023-01-13T05:14:27.674Z,69.90
2023-01-13T05:16:54.158Z,70.20
2023-01-13T05:19:20.624Z,70.20
2023-01-13T05:21:47.108Z,70.10
2023-01-13T05:24:13.586Z,69.80
2023-01-13T05:26:40.071Z,69.70
2023-01-13T05:29:06.563Z,70.10
2023-01-13T05:31:33.136Z,70.10
2023-01-13T05:33:59.656Z,70.30
2023-01-13T05:36:26.139Z,70.20
2023-01-13T05:38:52.608Z,70.10
2023-01-13T05:41:19.103Z,69.90
2023-01-13T05:43:45.701Z,69.80
2023-01-13T05:46:12.316Z,69.90
2023-01-13T05:48:38.826Z,69.80
2023-01-13T05:51:05.340Z,69.90
2023-01-13T05:53:31.851Z,70.20
2023-01-13T05:55:58.367Z,69.60
2023-01-13T05:58:24.848Z,69.00
2023-01-13T06:00:51.375Z,69.30
2023-01-13T06:03:17.935Z,69.40
2023-01-13T06:05:44.436Z,69.20
2023-01-13T06:08:10.901Z,69.30
2023-01-13T06:10:37.392Z,69.40
2023-01-13T06:13:03.861Z,69.50
2023-01-13T06:15:30.346Z,69.30
2023-01-13T06:17:56.823Z,69.30
2023-01-13T06:20:23.298Z,69.40
2023-01-13T06:22:49.794Z,69.10
2023-01-13T06:25:16.383Z,69.40
2023-01-13T06:27:43.126Z,69.00
2023-01-13T06:30:09.644Z,69.20
2023-01-13T06:32:36.149Z,69.40
2023-01-13T06:35:05.495Z,69.20
2023-01-13T06:37:32.144Z,69.30
2023-01-13T06:39:58.654Z,69.20
2023-01-13T06:42:25.164Z,68.80
2023-01-13T06:44:51.656Z,68.90
2023-01-13T06:47:18.170Z,68.90
2023-01-13T06:49:44.642Z,68.90
2023-01-13T06:52:11.116Z,68.70
2023-01-13T06:54:37.601Z,68.90
2023-01-13T06:57:04.083Z,68.50
2023-01-13T06:59:30.728Z,68.70
2023-01-13T07:01:57.400Z,68.50
2023-01-13T07:04:23.972Z,68.30
2023-01-13T07:06:50.459Z,68.60
2023-01-13T07:09:16.948Z,68.40
2023-01-13T07:11:43.426Z,68.40
2023-01-13T07:14:09.896Z,68.70
2023-01-13T07:16:36.464Z,68.70
2023-01-13T07:19:02.973Z,68.40
2023-01-13T07:21:29.484Z,68.40
2023-01-13T07:23:55.948Z,68.20
2023-01-13T07:26:22.410Z,68.30
2023-01-13T07:28:48.905Z,68.30
2023-01-13T07:31:15.422Z,68.10
2023-01-13T07:33:41.906Z,68.30
2023-01-13T07:36:08.375Z,67.90
2023-01-13T07:38:34.895Z,67.90
2023-01-13T07:41:01.364Z,68.00
2023-01-13T07:43:27.830Z,67.60
2023-01-13T07:45:54.370Z,67.80
2023-01-13T07:48:20.871Z,67.60
2023-01-13T07:50:47.347Z,67.90
2023-01-13T07:53:13.821Z,67.60
2023-01-13T07:55:40.292Z,68.10
2023-01-13T07:58:06.795Z,67.70
2023-01-13T08:00:33.302Z,68.00
2023-01-13T08:02:59.902Z,68.00
2023-01-13T08:05:26.437Z,68.00
2023-01-13T08:07:52.976Z,68.00
2023-01-13T08:10:19.442Z,67.80
2023-01-13T08:12:50.806Z,67.50
2023-01-13T08:15:22.357Z,67.50
2023-01-13T08:17:52.878Z,67.40
2023-01-13T08:20:19.356Z,67.00
2023-01-13T08:22:45.868Z,67.30
2023-01-13T08:25:12.348Z,67.10
2023-01-13T08:27:38.928Z,67.50
2023-01-13T08:30:05.440Z,67.50
2023-01-13T08:32:31.936Z,67.20
2023-01-13T08:34:58.486Z,66.90
2023-01-13T08:37:24.950Z,67.10
2023-01-13T08:39:51.446Z,67.40
2023-01-13T08:42:17.920Z,67.10
2023-01-13T08:44:44.382Z,67.40
2023-01-13T08:47:10.878Z,67.20
2023-01-13T08:49:37.352Z,67.00
2023-01-13T08:52:03.823Z,67.30
2023-01-13T08:54:30.342Z,66.50
2023-01-13T08:56:56.887Z,66.20
2023-01-13T08:59:23.438Z,66.50
2023-01-13T09:01:50.062Z,66.50
2023-01-13T09:04:16.680Z,66.60
2023-01-13T09:06:43.207Z,66.50
2023-01-13T09:09:09.708Z,66.60
2023-01-13T09:11:36.233Z,66.60
2023-01-13T09:14:03.566Z,66.70
2023-01-13T09:16:30.141Z,66.10
2023-01-13T09:18:56.636Z,66.50
2023-01-13T09:21:23.128Z,66.50
2023-01-13T09:23:49.621Z,66.50
2023-01-13T09:26:16.108Z,66.20
2023-01-13T09:28:42.606Z,66.70
2023-01-13T09:31:09.104Z,66.70
2023-01-13T09:33:35.622Z,66.50
2023-01-13T09:36:02.107Z,66.20
2023-01-13T09:38:28.611Z,66.90
2023-01-13T09:40:55.102Z,66.60
2023-01-13T09:43:21.579Z,66.50
2023-01-13T09:45:48.097Z,66.50
2023-01-13T09:48:14.606Z,66.70
2023-01-13T09:50:41.112Z,66.30
2023-01-13T09:53:07.601Z,66.50
2023-01-13T09:55:34.087Z,66.10
2023-01-13T09:58:00.552Z,66.10
2023-01-13T10:00:27.057Z,66.10
2023-01-13T10:02:53.525Z,66.10
2023-01-13T10:05:19.985Z,66.20
2023-01-13T10:07:46.468Z,66.30
2023-01-13T10:10:12.951Z,66.30
2023-01-13T10:12:39.426Z,65.90
2023-01-13T10:15:05.933Z,65.90
2023-01-13T10:17:32.397Z,65.80
2023-01-13T10:19:58.905Z,65.80
2023-01-13T10:22:25.410Z,66.00
2023-01-13T10:24:51.906Z,65.60
2023-01-13T10:27:18.392Z,65.60
2023-01-13T10:29:44.870Z,65.70
2023-01-13T10:32:11.340Z,65.60
2023-01-13T10:34:37.811Z,65.50
2023-01-13T10:37:04.299Z,65.80
2023-01-13T10:39:30.775Z,65.70
2023-01-13T10:41:57.272Z,65.30
2023-01-13T10:44:23.764Z,65.30
2023-01-13T10:46:50.307Z,65.60
2023-01-13T10:49:16.800Z,65.20
2023-01-13T10:51:43.281Z,65.20
2023-01-13T10:54:09.765Z,65.10
2023-01-13T10:56:36.242Z,65.30
2023-01-13T10:59:02.724Z,65.00
2023-01-13T11:01:29.352Z,65.00
2023-01-13T11:03:55.852Z,64.80
2023-01-13T11:06:22.326Z,64.90
2023-01-13T11:08:48.819Z,64.80
2023-01-13T11:11:15.290Z,64.70
2023-01-13T11:13:41.783Z,64.70
2023-01-13T11:16:08.299Z,64.50
2023-01-13T11:18:34.806Z,64.30
2023-01-13T11:21:01.298Z,64.20
2023-01-13T11:23:27.777Z,64.10
2023-01-13T11:25:54.274Z,64.30
2023-01-13T11:28:20.769Z,64.10
2023-01-13T11:30:48.507Z,64.40
2023-01-13T11:33:16.477Z,64.10
2023-01-13T11:35:42.969Z,64.30
2023-01-13T11:38:09.465Z,64.40
2023-01-13T11:40:35.945Z,64.10
2023-01-13T11:43:02.430Z,64.10
2023-01-13T11:45:28.904Z,64.10
2023-01-13T11:47:55.379Z,64.00
2023-01-13T11:50:21.859Z,63.90
2023-01-13T11:52:48.352Z,64.20
2023-01-13T11:55:14.843Z,64.40
2023-01-13T11:57:41.358Z,64.40
2023-01-13T12:00:07.828Z,64.40
2023-01-13T12:02:34.319Z,64.50
2023-01-13T12:05:00.826Z,64.70
2023-01-13T12:07:27.311Z,64.90
2023-01-13T12:09:53.821Z,64.60
2023-01-13T12:12:20.287Z,64.90
2023-01-13T12:14:46.800Z,65.00
2023-01-13T12:17:13.294Z,64.90
2023-01-13T12:19:39.783Z,65.00
2023-01-13T12:22:06.293Z,65.10
2023-01-13T12:24:32.772Z,65.10
2023-01-13T12:26:59.233Z,65.10
2023-01-13T12:29:25.734Z,64.90
2023-01-13T12:31:52.249Z,65.00
2023-01-13T12:34:18.750Z,65.20
2023-01-13T12:36:45.236Z,66.00
2023-01-13T12:39:11.714Z,65.50
2023-01-13T12:41:38.182Z,66.10
2023-01-13T12:44:04.679Z,65.60
2023-01-13T12:46:31.165Z,65.70
2023-01-13T12:48:57.649Z,65.70
2023-01-13T12:51:24.189Z,65.60
2023-01-13T12:53:50.693Z,65.30
2023-01-13T12:56:17.179Z,65.40
2023-01-13T12:58:43.646Z,65.50
2023-01-13T13:01:10.199Z,65.30
2023-01-13T13:03:36.701Z,65.30
2023-01-13T13:06:03.183Z,65.40
2023-01-13T13:08:29.694Z,65.60
2023-01-13T13:10:56.177Z,65.60
2023-01-13T13:13:22.644Z,65.60
2023-01-13T13:15:49.139Z,65.60
2023-01-13T13:18:15.601Z,65.60
2023-01-13T13:20:42.091Z,66.30
2023-01-13T13:23:08.575Z,65.40
2023-01-13T13:25:35.081Z,65.20
2023-01-13T13:28:01.561Z,66.00
2023-01-13T13:30:28.081Z,65.30
2023-01-13T13:32:54.560Z,65.20
2023-01-13T13:35:21.037Z,65.40
2023-01-13T13:37:53.147Z,65.20
2023-01-13T13:40:19.620Z,65.10
2023-01-13T13:42:46.111Z,65.50
2023-01-13T13:45:12.598Z,65.70
2023-01-13T13:47:39.091Z,65.50
2023-01-13T13:50:05.607Z,65.30
2023-01-13T13:52:32.156Z,65.30
2023-01-13T13:54:58.643Z,65.40
2023-01-13T13:57:25.100Z,66.00
2023-01-13T13:59:51.576Z,66.00
2023-01-13T14:02:18.105Z,65.30
2023-01-13T14:04:44.674Z,66.00
2023-01-13T14:07:11.207Z,65.00
2023-01-13T14:09:37.631Z,65.00
2023-01-13T14:12:04.086Z,65.30
2023-01-13T14:14:30.557Z,65.20
2023-01-13T14:16:57.065Z,65.40
2023-01-13T14:19:23.547Z,65.20
2023-01-13T14:21:50.050Z,65.10
2023-01-13T14:24:16.533Z,65.20
2023-01-13T14:26:43.010Z,64.90
2023-01-13T14:29:09.502Z,64.70
2023-01-13T14:31:35.994Z,64.90
2023-01-13T14:34:02.470Z,65.00
2023-01-13T14:36:28.939Z,66.00
2023-01-13T14:38:55.429Z,65.10
2023-01-13T14:41:21.886Z,64.90
2023-01-13T14:43:48.368Z,64.80
2023-01-13T14:46:14.870Z,64.90
2023-01-13T14:48:41.373Z,64.90
2023-01-13T14:51:07.850Z,64.90
2023-01-13T14:53:34.343Z,65.50
2023-01-13T14:56:00.811Z,65.40
2023-01-13T14:58:29.123Z,65.40
2023-01-13T15:00:55.613Z,65.40
2023-01-13T15:03:22.123Z,65.40
2023-01-13T15:05:48.609Z,65.30
2023-01-13T15:08:15.091Z,65.50
2023-01-13T15:10:41.577Z,65.60
2023-01-13T15:13:08.067Z,65.60
2023-01-13T15:15:34.546Z,65.30
2023-01-13T15:18:01.046Z,65.60
2023-01-13T15:20:27.519Z,65.60
2023-01-13T15:22:54.009Z,65.80
2023-01-13T15:25:20.480Z,65.90
2023-01-13T15:27:46.985Z,66.10
2023-01-13T15:30:13.535Z,65.90
2023-01-13T15:32:40.045Z,66.00
2023-01-13T15:35:06.516Z,65.80
2023-01-13T15:37:32.985Z,65.90
2023-01-13T15:39:59.452Z,65.90
2023-01-13T15:42:25.916Z,65.80
2023-01-13T15:44:52.379Z,66.00
2023-01-13T15:47:18.849Z,66.00
2023-01-13T15:49:45.312Z,66.10
2023-01-13T15:52:11.817Z,66.10
2023-01-13T15:54:38.291Z,66.00
2023-01-13T15:57:04.761Z,66.10
2023-01-13T15:59:31.224Z,66.50
2023-01-13T16:01:57.680Z,66.50
2023-01-13T16:04:24.148Z,66.30
2023-01-13T16:06:50.638Z,67.00
2023-01-13T16:09:17.150Z,66.20
2023-01-13T16:11:43.622Z,66.00
2023-01-13T16:14:10.119Z,65.80
2023-01-13T16:16:36.636Z,66.10
2023-01-13T16:19:03.133Z,66.10
2023-01-13T16:21:29.632Z,66.00
2023-01-13T16:23:56.115Z,66.10
2023-01-13T16:26:22.594Z,66.00
2023-01-13T16:28:49.090Z,65.90
2023-01-13T16:31:15.582Z,65.60
2023-01-13T16:33:42.106Z,65.80
2023-01-13T16:36:11.008Z,66.10
2023-01-13T16:38:39.311Z,66.30
2023-01-13T16:41:06.124Z,66.30
2023-01-13T16:43:32.617Z,66.30
2023-01-13T16:45:59.128Z,66.40
2023-01-13T16:48:29.298Z,66.30
2023-01-13T16:50:55.789Z,66.10
2023-01-13T16:53:22.259Z,66.10
2023-01-13T16:55:48.736Z,66.10
2023-01-13T16:58:15.206Z,65.70
2023-01-13T17:00:41.802Z,65.80
2023-01-13T17:03:08.305Z,65.90
2023-01-13T17:05:34.813Z,65.70
2023-01-13T17:08:01.319Z,65.80
2023-01-13T17:10:27.814Z,65.60
2023-01-13T17:12:54.293Z,65.50
2023-01-13T17:15:20.776Z,65.80
2023-01-13T17:17:47.265Z,65.80
2023-01-13T17:20:13.767Z,66.00
2023-01-13T17:22:41.334Z,65.80
2023-01-13T17:25:07.865Z,65.80
2023-01-13T17:27:34.326Z,65.70
2023-01-13T17:30:00.810Z,65.60
2023-01-13T17:32:27.278Z,65.80
2023-01-13T17:34:53.775Z,65.70
2023-01-13T17:37:20.265Z,65.60
2023-01-13T17:39:46.783Z,65.60
2023-01-13T17:42:13.333Z,65.70
2023-01-13T17:44:39.822Z,65.70
2023-01-13T17:47:06.318Z,65.80
2023-01-13T17:49:32.792Z,65.50
2023-01-13T17:51:59.263Z,65.60
2023-01-13T17:54:25.763Z,65.70
2023-01-13T17:56:52.241Z,65.70
2023-01-13T17:59:18.736Z,65.60
2023-01-13T18:01:45.301Z,65.50
2023-01-13T18:04:11.822Z,65.80
2023-01-13T18:06:38.299Z,65.70
2023-01-13T18:09:04.762Z,65.50
2023-01-13T18:11:31.245Z,65.80
2023-01-13T18:13:57.730Z,65.60
2023-01-13T18:16:24.246Z,65.60
2023-01-13T18:18:51.288Z,65.60
2023-01-13T18:21:18.097Z,65.30
2023-01-13T18:23:44.579Z,65.50
2023-01-13T18:26:11.051Z,65.30
2023-01-13T18:28:37.519Z,65.30
2023-01-13T18:31:04.041Z,65.40
2023-01-13T18:33:30.536Z,65.50
2023-01-13T18:35:57.029Z,65.40
2023-01-13T18:38:23.527Z,65.70
2023-01-13T18:40:49.998Z,65.20
2023-01-13T18:43:16.480Z,65.40
2023-01-13T18:45:42.969Z,65.30
2023-01-13T18:48:09.453Z,65.40
2023-01-13T18:50:35.969Z,65.60
2023-01-13T18:53:02.437Z,65.60
2023-01-13T18:55:28.927Z,65.30
2023-01-13T18:57:55.403Z,65.30
2023-01-13T19:00:21.944Z,65.60
2023-01-13T19:02:48.481Z,65.20
2023-01-13T19:05:15.054Z,65.40
2023-01-13T19:07:41.550Z,65.30
2023-01-13T19:10:08.052Z,65.50
2023-01-13T19:12:34.529Z,65.40
2023-01-13T19:15:01.036Z,65.50
2023-01-13T19:17:27.497Z,65.40
2023-01-13T19:19:53.969Z,65.50
2023-01-13T19:22:20.455Z,65.40
2023-01-13T19:24:46.926Z,65.20
2023-01-13T19:27:13.419Z,65.50
2023-01-13T19:29:43.077Z,65.50
2023-01-13T19:32:17.234Z,65.60
2023-01-13T19:34:44.012Z,65.20
2023-01-13T19:37:10.510Z,65.50
2023-01-13T19:39:36.978Z,65.30
2023-01-13T19:42:03.459Z,65.40
2023-01-13T19:44:29.926Z,65.20
2023-01-13T19:46:56.417Z,65.40
2023-01-13T19:49:22.881Z,65.10
2023-01-13T19:51:49.355Z,65.40
2023-01-13T19:54:15.822Z,65.20
2023-01-13T19:56:42.316Z,65.20
2023-01-13T19:59:08.799Z,65.20
2023-01-13T20:01:35.398Z,64.90
2023-01-13T20:04:01.909Z,64.80
2023-01-13T20:06:28.417Z,64.70
2023-01-13T20:08:54.887Z,64.70
2023-01-13T20:11:21.414Z,64.60
2023-01-13T20:13:47.881Z,64.50
2023-01-13T20:16:14.391Z,64.70
2023-01-13T20:18:40.906Z,64.80
2023-01-13T20:21:07.400Z,64.90
2023-01-13T20:23:33.880Z,64.50
2023-01-13T20:26:00.387Z,64.40
2023-01-13T20:28:26.851Z,64.50
2023-01-13T20:30:53.355Z,64.40
2023-01-13T20:33:19.819Z,64.60
2023-01-13T20:35:46.306Z,64.50
2023-01-13T20:38:12.776Z,64.20
2023-01-13T20:40:39.265Z,64.30
2023-01-13T20:43:05.726Z,64.50
2023-01-13T20:45:32.203Z,64.00
2023-01-13T20:47:58.682Z,64.30
2023-01-13T20:50:25.165Z,64.00
2023-01-13T20:52:53.445Z,63.90
2023-01-13T20:55:19.972Z,63.80
2023-01-13T20:57:46.435Z,63.70
2023-01-13T21:00:12.887Z,63.70
2023-01-13T21:02:39.385Z,63.80
2023-01-13T21:05:05.847Z,63.90
2023-01-13T21:07:32.308Z,63.70
2023-01-13T21:09:58.765Z,63.90
2023-01-13T21:12:25.262Z,64.00
2023-01-13T21:14:51.740Z,63.90
2023-01-13T21:17:18.225Z,64.20
2023-01-13T21:19:44.746Z,63.70
2023-01-13T21:22:11.216Z,63.70
2023-01-13T21:24:37.685Z,64.00
2023-01-13T21:27:04.164Z,64.00
2023-01-13T21:29:30.638Z,63.70
2023-01-13T21:31:57.188Z,64.00
2023-01-13T21:34:23.676Z,63.80
2023-01-13T21:36:50.161Z,63.80
2023-01-13T21:39:16.662Z,64.10
2023-01-13T21:41:43.146Z,63.80
2023-01-13T21:44:09.597Z,64.10
2023-01-13T21:46:36.069Z,64.10
2023-01-13T21:49:02.535Z,63.80
2023-01-13T21:51:29.041Z,64.30
2023-01-13T21:53:55.515Z,64.20
2023-01-13T21:56:21.981Z,64.10
2023-01-13T21:58:48.459Z,64.10
2023-01-13T22:01:15.048Z,64.20
2023-01-13T22:03:41.557Z,64.00
2023-01-13T22:06:08.074Z,64.20
2023-01-13T22:08:34.551Z,64.00
2023-01-13T22:11:01.043Z,64.00
2023-01-13T22:13:27.501Z,64.00
2023-01-13T22:15:54.008Z,63.80
2023-01-13T22:18:20.472Z,63.80
2023-01-13T22:20:46.981Z,63.80
2023-01-13T22:23:13.460Z,64.00
2023-01-13T22:25:39.992Z,64.10
2023-01-13T22:28:06.487Z,64.20
2023-01-13T22:30:32.964Z,64.00
2023-01-13T22:32:59.415Z,63.90
2023-01-13T22:35:25.877Z,64.10
2023-01-13T22:37:52.341Z,64.60
2023-01-13T22:40:18.821Z,64.10
2023-01-13T22:42:45.353Z,64.10
2023-01-13T22:45:11.832Z,64.30
2023-01-13T22:47:41.574Z,64.20
2023-01-13T22:50:08.052Z,64.10
2023-01-13T22:52:34.564Z,64.30
2023-01-13T22:55:01.051Z,64.00
2023-01-13T22:57:35.320Z,64.10
2023-01-13T23:00:02.691Z,64.10
2023-01-13T23:02:29.169Z,63.80
2023-01-13T23:04:55.700Z,64.00
2023-01-13T23:07:22.214Z,64.10
2023-01-13T23:09:48.693Z,64.10
2023-01-13T23:12:15.179Z,64.20
2023-01-13T23:14:41.664Z,64.20
2023-01-13T23:17:08.162Z,64.10
2023-01-13T23:19:34.627Z,64.40
2023-01-13T23:22:01.092Z,64.30
2023-01-13T23:24:27.579Z,64.30
2023-01-13T23:26:54.062Z,64.40
2023-01-13T23:29:20.561Z,64.20
2023-01-13T23:31:47.081Z,64.20
2023-01-13T23:34:13.553Z,64.20
2023-01-13T23:36:40.049Z,64.20
2023-01-13T23:39:06.518Z,64.20
2023-01-13T23:41:33.016Z,64.20
2023-01-13T23:43:59.489Z,63.80
2023-01-13T23:46:26.071Z,64.90
2023-01-13T23:48:52.559Z,64.10
2023-01-13T23:51:19.039Z,64.30
2023-01-13T23:53:45.509Z,64.20
2023-01-13T23:56:12.011Z,64.30
2023-01-13T23:58:38.473Z,64.50
